sensor_id;sensor_type;location;lat;lon;timestamp;P1;durP1;ratioP1;P2;durP2;ratioP2
64875;SDS011;51369;49.862;9.908;2023-12-07T00:02:06;17.50;;;10.32;;
64875;SDS011;51369;49.862;9.908;2023-12-07T00:04:32;19.92;;;10.30;;
64875;SDS011;51369;49.862;9.908;2023-12-07T00:06:57;17.50;;;9.80;;
64875;SDS011;51369;49.862;9.908;2023-12-07T00:09:23;19.33;;;9.55;;
64875;SDS011;51369;49.862;9.908;2023-12-07T00:11:48;15.95;;;9.65;;
64875;SDS011;51369;49.862;9.908;2023-12-07T00:14:14;22.33;;;11.02;;
64875;SDS011;51369;49.862;9.908;2023-12-07T00:16:39;16.05;;;9.82;;
64875;SDS011;51369;49.862;9.908;2023-12-07T00:19:05;19.15;;;10.30;;
64875;SDS011;51369;49.862;9.908;2023-12-07T00:21:30;18.10;;;10.13;;
64875;SDS011;51369;49.862;9.908;2023-12-07T00:23:56;18.65;;;10.13;;
64875;SDS011;51369;49.862;9.908;2023-12-07T00:26:21;20.92;;;10.82;;
64875;SDS011;51369;49.862;9.908;2023-12-07T00:28:47;19.33;;;10.93;;
64875;SDS011;51369;49.862;9.908;2023-12-07T00:31:12;15.77;;;9.50;;
64875;SDS011;51369;49.862;9.908;2023-12-07T00:33:38;17.83;;;9.60;;
64875;SDS011;51369;49.862;9.908;2023-12-07T00:36:03;20.52;;;10.75;;
64875;SDS011;51369;49.862;9.908;2023-12-07T00:38:29;18.95;;;10.32;;
64875;SDS011;51369;49.862;9.908;2023-12-07T00:40:54;17.80;;;9.63;;
64875;SDS011;51369;49.862;9.908;2023-12-07T00:43:19;19.25;;;10.60;;
64875;SDS011;51369;49.862;9.908;2023-12-07T00:45:45;18.50;;;10.45;;
64875;SDS011;51369;49.862;9.908;2023-12-07T00:48:10;15.60;;;9.80;;
64875;SDS011;51369;49.862;9.908;2023-12-07T00:50:36;19.60;;;9.88;;
64875;SDS011;51369;49.862;9.908;2023-12-07T00:53:01;16.90;;;10.57;;
64875;SDS011;51369;49.862;9.908;2023-12-07T00:55:26;16.83;;;10.18;;
64875;SDS011;51369;49.862;9.908;2023-12-07T00:57:52;22.17;;;10.88;;
64875;SDS011;51369;49.862;9.908;2023-12-07T01:00:17;19.85;;;11.43;;
64875;SDS011;51369;49.862;9.908;2023-12-07T01:02:42;20.40;;;11.77;;
64875;SDS011;51369;49.862;9.908;2023-12-07T01:05:08;26.85;;;12.02;;
64875;SDS011;51369;49.862;9.908;2023-12-07T01:07:34;20.40;;;10.50;;
64875;SDS011;51369;49.862;9.908;2023-12-07T01:10:00;17.80;;;11.10;;
64875;SDS011;51369;49.862;9.908;2023-12-07T01:12:25;22.00;;;11.48;;
64875;SDS011;51369;49.862;9.908;2023-12-07T01:14:50;21.02;;;10.70;;
64875;SDS011;51369;49.862;9.908;2023-12-07T01:17:16;23.45;;;11.27;;
64875;SDS011;51369;49.862;9.908;2023-12-07T01:19:42;22.38;;;10.93;;
64875;SDS011;51369;49.862;9.908;2023-12-07T01:22:07;19.08;;;10.77;;
64875;SDS011;51369;49.862;9.908;2023-12-07T01:24:32;21.70;;;11.32;;
64875;SDS011;51369;49.862;9.908;2023-12-07T01:26:57;19.90;;;10.55;;
64875;SDS011;51369;49.862;9.908;2023-12-07T01:29:23;19.20;;;11.43;;
64875;SDS011;51369;49.862;9.908;2023-12-07T01:31:49;20.52;;;11.20;;
64875;SDS011;51369;49.862;9.908;2023-12-07T01:34:14;20.35;;;10.90;;
64875;SDS011;51369;49.862;9.908;2023-12-07T01:36:40;22.13;;;11.52;;
64875;SDS011;51369;49.862;9.908;2023-12-07T01:39:05;19.13;;;11.25;;
64875;SDS011;51369;49.862;9.908;2023-12-07T01:41:31;21.25;;;11.65;;
64875;SDS011;51369;49.862;9.908;2023-12-07T01:43:56;20.27;;;11.40;;
64875;SDS011;51369;49.862;9.908;2023-12-07T01:46:22;22.73;;;10.93;;
64875;SDS011;51369;49.862;9.908;2023-12-07T01:48:48;18.02;;;11.25;;
64875;SDS011;51369;49.862;9.908;2023-12-07T01:51:14;23.08;;;11.52;;
64875;SDS011;51369;49.862;9.908;2023-12-07T01:53:40;20.05;;;10.82;;
64875;SDS011;51369;49.862;9.908;2023-12-07T01:56:06;22.90;;;11.45;;
64875;SDS011;51369;49.862;9.908;2023-12-07T01:58:33;20.75;;;12.20;;
64875;SDS011;51369;49.862;9.908;2023-12-07T02:00:59;21.20;;;11.07;;
64875;SDS011;51369;49.862;9.908;2023-12-07T02:03:24;19.65;;;11.68;;
64875;SDS011;51369;49.862;9.908;2023-12-07T02:05:52;21.48;;;12.23;;
64875;SDS011;51369;49.862;9.908;2023-12-07T02:08:18;21.38;;;11.43;;
64875;SDS011;51369;49.862;9.908;2023-12-07T02:10:43;18.20;;;11.02;;
64875;SDS011;51369;49.862;9.908;2023-12-07T02:13:09;20.92;;;11.10;;
64875;SDS011;51369;49.862;9.908;2023-12-07T02:15:34;20.52;;;11.45;;
64875;SDS011;51369;49.862;9.908;2023-12-07T02:20:53;17.65;;;10.77;;
64875;SDS011;51369;49.862;9.908;2023-12-07T02:23:26;20.17;;;11.52;;
64875;SDS011;51369;49.862;9.908;2023-12-07T02:25:54;17.58;;;10.50;;
64875;SDS011;51369;49.862;9.908;2023-12-07T02:28:27;22.27;;;11.27;;
64875;SDS011;51369;49.862;9.908;2023-12-07T02:30:52;17.65;;;10.80;;
64875;SDS011;51369;49.862;9.908;2023-12-07T02:33:18;22.73;;;11.43;;
64875;SDS011;51369;49.862;9.908;2023-12-07T02:35:43;17.95;;;10.73;;
64875;SDS011;51369;49.862;9.908;2023-12-07T02:38:09;20.10;;;10.80;;
64875;SDS011;51369;49.862;9.908;2023-12-07T02:40:34;16.02;;;10.25;;
64875;SDS011;51369;49.862;9.908;2023-12-07T02:43:00;16.25;;;9.65;;
64875;SDS011;51369;49.862;9.908;2023-12-07T02:45:28;20.25;;;10.13;;
64875;SDS011;51369;49.862;9.908;2023-12-07T02:47:54;19.00;;;10.05;;
64875;SDS011;51369;49.862;9.908;2023-12-07T02:50:19;18.88;;;10.55;;
64875;SDS011;51369;49.862;9.908;2023-12-07T02:52:45;15.98;;;9.80;;
64875;SDS011;51369;49.862;9.908;2023-12-07T02:55:11;16.67;;;9.93;;
64875;SDS011;51369;49.862;9.908;2023-12-07T02:57:37;19.58;;;11.18;;
64875;SDS011;51369;49.862;9.908;2023-12-07T03:00:03;16.30;;;10.75;;
64875;SDS011;51369;49.862;9.908;2023-12-07T03:02:36;20.10;;;10.13;;
64875;SDS011;51369;49.862;9.908;2023-12-07T03:05:02;19.70;;;10.77;;
64875;SDS011;51369;49.862;9.908;2023-12-07T03:07:28;22.25;;;11.90;;
64875;SDS011;51369;49.862;9.908;2023-12-07T03:09:54;21.95;;;12.13;;
64875;SDS011;51369;49.862;9.908;2023-12-07T03:12:19;21.25;;;11.55;;
64875;SDS011;51369;49.862;9.908;2023-12-07T03:14:45;18.23;;;10.80;;
64875;SDS011;51369;49.862;9.908;2023-12-07T03:17:10;18.73;;;11.55;;
64875;SDS011;51369;49.862;9.908;2023-12-07T03:19:39;19.02;;;11.20;;
64875;SDS011;51369;49.862;9.908;2023-12-07T03:22:05;17.20;;;10.05;;
64875;SDS011;51369;49.862;9.908;2023-12-07T03:24:34;18.15;;;10.35;;
64875;SDS011;51369;49.862;9.908;2023-12-07T03:27:00;18.83;;;11.55;;
64875;SDS011;51369;49.862;9.908;2023-12-07T03:29:25;24.42;;;10.75;;
64875;SDS011;51369;49.862;9.908;2023-12-07T03:31:51;20.42;;;10.65;;
64875;SDS011;51369;49.862;9.908;2023-12-07T03:34:16;22.73;;;12.45;;
64875;SDS011;51369;49.862;9.908;2023-12-07T03:36:42;31.15;;;13.25;;
64875;SDS011;51369;49.862;9.908;2023-12-07T03:39:13;21.38;;;13.07;;
64875;SDS011;51369;49.862;9.908;2023-12-07T03:41:40;21.45;;;12.90;;
64875;SDS011;51369;49.862;9.908;2023-12-07T03:44:05;24.98;;;12.55;;
64875;SDS011;51369;49.862;9.908;2023-12-07T03:46:31;23.48;;;12.73;;
64875;SDS011;51369;49.862;9.908;2023-12-07T03:48:57;22.70;;;12.63;;
64875;SDS011;51369;49.862;9.908;2023-12-07T03:51:22;24.83;;;12.30;;
64875;SDS011;51369;49.862;9.908;2023-12-07T03:53:47;23.85;;;12.75;;
64875;SDS011;51369;49.862;9.908;2023-12-07T03:56:25;20.63;;;12.63;;
64875;SDS011;51369;49.862;9.908;2023-12-07T03:58:52;22.25;;;12.50;;
64875;SDS011;51369;49.862;9.908;2023-12-07T04:01:17;23.33;;;13.10;;
64875;SDS011;51369;49.862;9.908;2023-12-07T04:03:46;27.95;;;12.73;;
64875;SDS011;51369;49.862;9.908;2023-12-07T04:06:11;23.83;;;13.25;;
64875;SDS011;51369;49.862;9.908;2023-12-07T04:08:36;22.25;;;13.10;;
64875;SDS011;51369;49.862;9.908;2023-12-07T04:11:02;21.58;;;12.75;;
64875;SDS011;51369;49.862;9.908;2023-12-07T04:13:27;19.83;;;11.80;;
64875;SDS011;51369;49.862;9.908;2023-12-07T04:15:53;20.02;;;11.27;;
64875;SDS011;51369;49.862;9.908;2023-12-07T04:18:18;21.92;;;12.00;;
64875;SDS011;51369;49.862;9.908;2023-12-07T04:20:43;25.95;;;12.55;;
64875;SDS011;51369;49.862;9.908;2023-12-07T04:23:09;23.58;;;12.35;;
64875;SDS011;51369;49.862;9.908;2023-12-07T04:25:34;22.73;;;12.05;;
64875;SDS011;51369;49.862;9.908;2023-12-07T04:27:59;23.95;;;12.68;;
64875;SDS011;51369;49.862;9.908;2023-12-07T04:30:25;22.55;;;12.60;;
64875;SDS011;51369;49.862;9.908;2023-12-07T04:32:50;24.45;;;12.68;;
64875;SDS011;51369;49.862;9.908;2023-12-07T04:35:16;22.48;;;13.10;;
64875;SDS011;51369;49.862;9.908;2023-12-07T04:37:41;24.40;;;13.82;;
64875;SDS011;51369;49.862;9.908;2023-12-07T04:40:07;27.20;;;14.65;;
64875;SDS011;51369;49.862;9.908;2023-12-07T04:42:33;31.33;;;13.90;;
64875;SDS011;51369;49.862;9.908;2023-12-07T04:44:58;30.10;;;15.02;;
64875;SDS011;51369;49.862;9.908;2023-12-07T04:47:24;31.48;;;15.30;;
64875;SDS011;51369;49.862;9.908;2023-12-07T04:49:49;24.65;;;14.77;;
64875;SDS011;51369;49.862;9.908;2023-12-07T04:52:14;31.35;;;15.38;;
64875;SDS011;51369;49.862;9.908;2023-12-07T04:54:40;28.90;;;13.95;;
64875;SDS011;51369;49.862;9.908;2023-12-07T04:57:06;33.15;;;14.52;;
64875;SDS011;51369;49.862;9.908;2023-12-07T04:59:32;34.10;;;16.60;;
64875;SDS011;51369;49.862;9.908;2023-12-07T05:01:57;29.50;;;16.45;;
64875;SDS011;51369;49.862;9.908;2023-12-07T05:04:23;26.25;;;15.00;;
64875;SDS011;51369;49.862;9.908;2023-12-07T05:06:49;22.75;;;11.98;;
64875;SDS011;51369;49.862;9.908;2023-12-07T05:09:15;25.23;;;13.10;;
64875;SDS011;51369;49.862;9.908;2023-12-07T05:11:40;23.33;;;13.30;;
64875;SDS011;51369;49.862;9.908;2023-12-07T05:14:06;26.77;;;13.65;;
64875;SDS011;51369;49.862;9.908;2023-12-07T05:16:32;25.15;;;13.07;;
64875;SDS011;51369;49.862;9.908;2023-12-07T05:18:57;25.85;;;13.52;;
64875;SDS011;51369;49.862;9.908;2023-12-07T05:21:23;27.08;;;14.43;;
64875;SDS011;51369;49.862;9.908;2023-12-07T05:23:49;24.60;;;13.65;;
64875;SDS011;51369;49.862;9.908;2023-12-07T05:26:14;28.10;;;14.98;;
64875;SDS011;51369;49.862;9.908;2023-12-07T05:28:40;30.63;;;15.20;;
64875;SDS011;51369;49.862;9.908;2023-12-07T05:31:05;23.27;;;12.77;;
64875;SDS011;51369;49.862;9.908;2023-12-07T05:33:32;28.77;;;14.18;;
64875;SDS011;51369;49.862;9.908;2023-12-07T05:35:57;25.08;;;14.85;;
64875;SDS011;51369;49.862;9.908;2023-12-07T05:38:23;28.02;;;14.50;;
64875;SDS011;51369;49.862;9.908;2023-12-07T05:40:48;25.80;;;13.68;;
64875;SDS011;51369;49.862;9.908;2023-12-07T05:43:14;22.73;;;13.43;;
64875;SDS011;51369;49.862;9.908;2023-12-07T05:45:40;26.35;;;14.25;;
64875;SDS011;51369;49.862;9.908;2023-12-07T05:48:06;27.55;;;14.65;;
64875;SDS011;51369;49.862;9.908;2023-12-07T05:50:31;28.55;;;14.65;;
64875;SDS011;51369;49.862;9.908;2023-12-07T05:52:56;28.90;;;13.77;;
64875;SDS011;51369;49.862;9.908;2023-12-07T05:55:22;23.60;;;12.65;;
64875;SDS011;51369;49.862;9.908;2023-12-07T05:57:47;25.75;;;13.63;;
64875;SDS011;51369;49.862;9.908;2023-12-07T06:00:13;27.48;;;14.35;;
64875;SDS011;51369;49.862;9.908;2023-12-07T06:02:41;23.73;;;13.15;;
64875;SDS011;51369;49.862;9.908;2023-12-07T06:05:07;27.73;;;13.88;;
64875;SDS011;51369;49.862;9.908;2023-12-07T06:07:32;23.85;;;14.45;;
64875;SDS011;51369;49.862;9.908;2023-12-07T06:09:58;25.38;;;13.55;;
64875;SDS011;51369;49.862;9.908;2023-12-07T06:12:25;25.75;;;13.23;;
64875;SDS011;51369;49.862;9.908;2023-12-07T06:14:50;27.48;;;15.13;;
64875;SDS011;51369;49.862;9.908;2023-12-07T06:17:16;30.27;;;15.18;;
64875;SDS011;51369;49.862;9.908;2023-12-07T06:19:41;33.40;;;14.98;;
64875;SDS011;51369;49.862;9.908;2023-12-07T06:22:07;36.22;;;14.85;;
64875;SDS011;51369;49.862;9.908;2023-12-07T06:24:33;28.10;;;14.10;;
64875;SDS011;51369;49.862;9.908;2023-12-07T06:26:59;25.40;;;12.98;;
64875;SDS011;51369;49.862;9.908;2023-12-07T06:29:26;29.75;;;13.35;;
64875;SDS011;51369;49.862;9.908;2023-12-07T06:31:52;24.52;;;13.18;;
64875;SDS011;51369;49.862;9.908;2023-12-07T06:34:17;31.48;;;15.70;;
64875;SDS011;51369;49.862;9.908;2023-12-07T06:36:42;27.35;;;14.05;;
64875;SDS011;51369;49.862;9.908;2023-12-07T06:39:09;31.67;;;14.57;;
64875;SDS011;51369;49.862;9.908;2023-12-07T06:41:34;24.15;;;13.32;;
64875;SDS011;51369;49.862;9.908;2023-12-07T06:43:59;25.85;;;12.65;;
64875;SDS011;51369;49.862;9.908;2023-12-07T06:46:25;28.90;;;13.98;;
64875;SDS011;51369;49.862;9.908;2023-12-07T06:48:50;24.40;;;13.82;;
64875;SDS011;51369;49.862;9.908;2023-12-07T06:51:15;25.98;;;12.52;;
64875;SDS011;51369;49.862;9.908;2023-12-07T06:53:41;27.05;;;13.18;;
64875;SDS011;51369;49.862;9.908;2023-12-07T06:56:07;25.70;;;12.48;;
64875;SDS011;51369;49.862;9.908;2023-12-07T06:58:33;27.45;;;13.88;;
64875;SDS011;51369;49.862;9.908;2023-12-07T07:00:58;22.20;;;12.55;;
64875;SDS011;51369;49.862;9.908;2023-12-07T07:03:24;23.98;;;13.85;;
64875;SDS011;51369;49.862;9.908;2023-12-07T07:05:50;24.65;;;12.68;;
64875;SDS011;51369;49.862;9.908;2023-12-07T07:08:16;33.83;;;16.75;;
64875;SDS011;51369;49.862;9.908;2023-12-07T07:10:41;35.63;;;19.25;;
64875;SDS011;51369;49.862;9.908;2023-12-07T07:13:07;33.38;;;18.17;;
64875;SDS011;51369;49.862;9.908;2023-12-07T07:15:33;36.20;;;18.20;;
64875;SDS011;51369;49.862;9.908;2023-12-07T07:17:58;33.78;;;17.15;;
64875;SDS011;51369;49.862;9.908;2023-12-07T07:20:24;29.98;;;15.73;;
64875;SDS011;51369;49.862;9.908;2023-12-07T07:22:50;34.53;;;16.33;;
64875;SDS011;51369;49.862;9.908;2023-12-07T07:25:16;33.17;;;16.13;;
64875;SDS011;51369;49.862;9.908;2023-12-07T07:27:44;28.52;;;14.88;;
64875;SDS011;51369;49.862;9.908;2023-12-07T07:30:10;32.47;;;15.80;;
64875;SDS011;51369;49.862;9.908;2023-12-07T07:32:36;31.27;;;16.23;;
64875;SDS011;51369;49.862;9.908;2023-12-07T07:35:01;33.83;;;15.95;;
64875;SDS011;51369;49.862;9.908;2023-12-07T07:37:26;31.88;;;16.60;;
64875;SDS011;51369;49.862;9.908;2023-12-07T07:39:52;35.25;;;16.35;;
64875;SDS011;51369;49.862;9.908;2023-12-07T07:42:17;38.17;;;18.20;;
64875;SDS011;51369;49.862;9.908;2023-12-07T07:44:42;43.47;;;19.50;;
64875;SDS011;51369;49.862;9.908;2023-12-07T07:47:08;55.67;;;18.20;;
64875;SDS011;51369;49.862;9.908;2023-12-07T07:49:34;40.33;;;17.52;;
64875;SDS011;51369;49.862;9.908;2023-12-07T07:51:59;80.53;;;17.88;;
64875;SDS011;51369;49.862;9.908;2023-12-07T07:54:25;44.00;;;17.02;;
64875;SDS011;51369;49.862;9.908;2023-12-07T07:56:50;56.70;;;17.10;;
64875;SDS011;51369;49.862;9.908;2023-12-07T07:59:16;82.35;;;16.65;;
64875;SDS011;51369;49.862;9.908;2023-12-07T08:01:41;45.08;;;17.23;;
64875;SDS011;51369;49.862;9.908;2023-12-07T08:04:07;100.88;;;17.00;;
64875;SDS011;51369;49.862;9.908;2023-12-07T08:06:32;55.08;;;17.63;;
64875;SDS011;51369;49.862;9.908;2023-12-07T08:08:58;97.88;;;16.17;;
64875;SDS011;51369;49.862;9.908;2023-12-07T08:11:23;37.67;;;15.40;;
64875;SDS011;51369;49.862;9.908;2023-12-07T08:13:49;57.75;;;16.77;;
64875;SDS011;51369;49.862;9.908;2023-12-07T08:16:15;62.17;;;16.17;;
64875;SDS011;51369;49.862;9.908;2023-12-07T08:18:41;70.32;;;15.80;;
64875;SDS011;51369;49.862;9.908;2023-12-07T08:21:07;78.97;;;16.27;;
64875;SDS011;51369;49.862;9.908;2023-12-07T08:23:33;75.35;;;15.13;;
64875;SDS011;51369;49.862;9.908;2023-12-07T08:26:00;87.88;;;14.23;;
64875;SDS011;51369;49.862;9.908;2023-12-07T08:28:26;64.05;;;13.63;;
64875;SDS011;51369;49.862;9.908;2023-12-07T08:30:52;57.70;;;14.73;;
64875;SDS011;51369;49.862;9.908;2023-12-07T08:33:17;63.65;;;15.93;;
64875;SDS011;51369;49.862;9.908;2023-12-07T08:35:42;73.78;;;14.43;;
64875;SDS011;51369;49.862;9.908;2023-12-07T08:38:08;40.97;;;15.00;;
64875;SDS011;51369;49.862;9.908;2023-12-07T08:40:33;56.75;;;14.43;;
64875;SDS011;51369;49.862;9.908;2023-12-07T08:42:59;64.03;;;16.20;;
64875;SDS011;51369;49.862;9.908;2023-12-07T08:45:24;104.45;;;15.77;;
64875;SDS011;51369;49.862;9.908;2023-12-07T08:47:49;67.38;;;14.40;;
64875;SDS011;51369;49.862;9.908;2023-12-07T08:50:15;66.30;;;14.90;;
64875;SDS011;51369;49.862;9.908;2023-12-07T08:52:40;55.85;;;14.18;;
64875;SDS011;51369;49.862;9.908;2023-12-07T08:55:06;72.38;;;15.15;;
64875;SDS011;51369;49.862;9.908;2023-12-07T08:57:31;72.38;;;15.75;;
64875;SDS011;51369;49.862;9.908;2023-12-07T08:59:57;102.05;;;15.13;;
64875;SDS011;51369;49.862;9.908;2023-12-07T09:02:23;65.53;;;14.48;;
64875;SDS011;51369;49.862;9.908;2023-12-07T09:04:48;91.50;;;14.55;;
64875;SDS011;51369;49.862;9.908;2023-12-07T09:07:16;101.07;;;14.65;;
64875;SDS011;51369;49.862;9.908;2023-12-07T09:09:42;103.05;;;15.20;;
64875;SDS011;51369;49.862;9.908;2023-12-07T09:12:15;113.18;;;14.93;;
64875;SDS011;51369;49.862;9.908;2023-12-07T09:14:41;86.15;;;13.90;;
64875;SDS011;51369;49.862;9.908;2023-12-07T09:17:06;132.80;;;14.63;;
64875;SDS011;51369;49.862;9.908;2023-12-07T09:19:32;105.50;;;15.07;;
64875;SDS011;51369;49.862;9.908;2023-12-07T09:21:57;124.75;;;15.18;;
64875;SDS011;51369;49.862;9.908;2023-12-07T09:24:23;95.32;;;15.10;;
64875;SDS011;51369;49.862;9.908;2023-12-07T09:26:49;94.28;;;14.65;;
64875;SDS011;51369;49.862;9.908;2023-12-07T09:29:14;60.50;;;13.07;;
64875;SDS011;51369;49.862;9.908;2023-12-07T09:31:40;61.42;;;14.85;;
64875;SDS011;51369;49.862;9.908;2023-12-07T09:34:05;87.65;;;14.75;;
64875;SDS011;51369;49.862;9.908;2023-12-07T09:36:30;89.43;;;13.82;;
64875;SDS011;51369;49.862;9.908;2023-12-07T09:38:56;60.85;;;14.07;;
64875;SDS011;51369;49.862;9.908;2023-12-07T09:41:21;88.18;;;14.77;;
64875;SDS011;51369;49.862;9.908;2023-12-07T09:43:48;84.72;;;14.60;;
64875;SDS011;51369;49.862;9.908;2023-12-07T09:46:14;51.13;;;15.27;;
64875;SDS011;51369;49.862;9.908;2023-12-07T09:48:40;78.07;;;14.23;;
64875;SDS011;51369;49.862;9.908;2023-12-07T09:51:08;83.13;;;14.95;;
64875;SDS011;51369;49.862;9.908;2023-12-07T09:53:35;62.40;;;14.80;;
64875;SDS011;51369;49.862;9.908;2023-12-07T09:56:01;81.97;;;16.58;;
64875;SDS011;51369;49.862;9.908;2023-12-07T09:58:26;76.97;;;18.05;;
64875;SDS011;51369;49.862;9.908;2023-12-07T10:00:52;74.03;;;17.77;;
64875;SDS011;51369;49.862;9.908;2023-12-07T10:03:20;79.10;;;17.95;;
64875;SDS011;51369;49.862;9.908;2023-12-07T10:05:59;88.72;;;19.98;;
64875;SDS011;51369;49.862;9.908;2023-12-07T10:08:29;69.10;;;18.58;;
64875;SDS011;51369;49.862;9.908;2023-12-07T10:11:08;70.55;;;17.65;;
64875;SDS011;51369;49.862;9.908;2023-12-07T10:13:35;89.53;;;18.70;;
64875;SDS011;51369;49.862;9.908;2023-12-07T10:16:05;90.32;;;19.45;;
64875;SDS011;51369;49.862;9.908;2023-12-07T10:18:35;94.60;;;19.27;;
64875;SDS011;51369;49.862;9.908;2023-12-07T10:21:00;117.70;;;21.75;;
64875;SDS011;51369;49.862;9.908;2023-12-07T10:23:26;108.80;;;21.20;;
64875;SDS011;51369;49.862;9.908;2023-12-07T10:25:52;86.70;;;21.05;;
64875;SDS011;51369;49.862;9.908;2023-12-07T10:28:18;89.07;;;20.23;;
64875;SDS011;51369;49.862;9.908;2023-12-07T10:30:44;99.10;;;22.63;;
64875;SDS011;51369;49.862;9.908;2023-12-07T10:33:10;111.18;;;19.38;;
64875;SDS011;51369;49.862;9.908;2023-12-07T10:35:38;98.07;;;18.45;;
64875;SDS011;51369;49.862;9.908;2023-12-07T10:38:05;87.35;;;18.98;;
64875;SDS011;51369;49.862;9.908;2023-12-07T10:40:32;106.60;;;19.65;;
64875;SDS011;51369;49.862;9.908;2023-12-07T10:42:57;83.43;;;18.08;;
64875;SDS011;51369;49.862;9.908;2023-12-07T10:45:28;70.15;;;19.13;;
64875;SDS011;51369;49.862;9.908;2023-12-07T10:47:56;63.03;;;12.75;;
64875;SDS011;51369;49.862;9.908;2023-12-07T10:50:29;89.03;;;18.48;;
64875;SDS011;51369;49.862;9.908;2023-12-07T10:52:59;98.72;;;18.20;;
64875;SDS011;51369;49.862;9.908;2023-12-07T10:55:34;64.75;;;17.45;;
64875;SDS011;51369;49.862;9.908;2023-12-07T10:58:08;74.22;;;18.88;;
64875;SDS011;51369;49.862;9.908;2023-12-07T11:00:35;62.63;;;17.63;;
64875;SDS011;51369;49.862;9.908;2023-12-07T11:03:01;86.95;;;19.05;;
64875;SDS011;51369;49.862;9.908;2023-12-07T11:05:28;73.18;;;18.40;;
64875;SDS011;51369;49.862;9.908;2023-12-07T11:08:03;54.33;;;18.10;;
64875;SDS011;51369;49.862;9.908;2023-12-07T11:13:11;56.65;;;16.80;;
64875;SDS011;51369;49.862;9.908;2023-12-07T11:15:41;61.88;;;16.65;;
64875;SDS011;51369;49.862;9.908;2023-12-07T11:18:07;54.25;;;17.85;;
64875;SDS011;51369;49.862;9.908;2023-12-07T11:20:43;69.55;;;18.15;;
64875;SDS011;51369;49.862;9.908;2023-12-07T11:23:10;67.20;;;18.23;;
64875;SDS011;51369;49.862;9.908;2023-12-07T11:25:37;77.47;;;16.58;;
64875;SDS011;51369;49.862;9.908;2023-12-07T11:28:03;59.15;;;17.90;;
64875;SDS011;51369;49.862;9.908;2023-12-07T11:30:31;58.03;;;17.48;;
64875;SDS011;51369;49.862;9.908;2023-12-07T11:32:59;61.60;;;18.55;;
64875;SDS011;51369;49.862;9.908;2023-12-07T11:35:25;60.28;;;17.85;;
64875;SDS011;51369;49.862;9.908;2023-12-07T11:38:00;56.88;;;16.73;;
64875;SDS011;51369;49.862;9.908;2023-12-07T11:40:31;57.75;;;17.60;;
64875;SDS011;51369;49.862;9.908;2023-12-07T11:42:59;71.40;;;19.20;;
64875;SDS011;51369;49.862;9.908;2023-12-07T11:48:27;61.25;;;17.67;;
64875;SDS011;51369;49.862;9.908;2023-12-07T11:50:55;75.97;;;18.30;;
64875;SDS011;51369;49.862;9.908;2023-12-07T11:53:21;67.13;;;19.52;;
64875;SDS011;51369;49.862;9.908;2023-12-07T11:56:07;71.03;;;19.35;;
64875;SDS011;51369;49.862;9.908;2023-12-07T11:58:35;77.00;;;18.88;;
64875;SDS011;51369;49.862;9.908;2023-12-07T12:01:01;62.05;;;18.75;;
64875;SDS011;51369;49.862;9.908;2023-12-07T12:03:28;84.68;;;22.45;;
64875;SDS011;51369;49.862;9.908;2023-12-07T12:05:55;87.80;;;22.40;;
64875;SDS011;51369;49.862;9.908;2023-12-07T12:08:21;76.00;;;22.27;;
64875;SDS011;51369;49.862;9.908;2023-12-07T12:10:47;85.28;;;23.58;;
64875;SDS011;51369;49.862;9.908;2023-12-07T12:13:16;85.78;;;23.33;;
64875;SDS011;51369;49.862;9.908;2023-12-07T12:15:42;81.03;;;22.52;;
64875;SDS011;51369;49.862;9.908;2023-12-07T12:18:08;80.93;;;23.00;;
64875;SDS011;51369;49.862;9.908;2023-12-07T12:20:34;83.75;;;23.40;;
64875;SDS011;51369;49.862;9.908;2023-12-07T12:23:00;87.20;;;23.80;;
64875;SDS011;51369;49.862;9.908;2023-12-07T12:25:27;88.82;;;25.88;;
64875;SDS011;51369;49.862;9.908;2023-12-07T12:27:55;86.60;;;23.88;;
64875;SDS011;51369;49.862;9.908;2023-12-07T12:30:22;87.32;;;23.90;;
64875;SDS011;51369;49.862;9.908;2023-12-07T12:32:49;75.57;;;23.17;;
64875;SDS011;51369;49.862;9.908;2023-12-07T12:35:15;76.43;;;24.00;;
64875;SDS011;51369;49.862;9.908;2023-12-07T12:37:42;97.70;;;25.70;;
64875;SDS011;51369;49.862;9.908;2023-12-07T12:40:11;72.22;;;23.15;;
64875;SDS011;51369;49.862;9.908;2023-12-07T12:42:40;67.30;;;23.10;;
64875;SDS011;51369;49.862;9.908;2023-12-07T12:45:09;75.40;;;24.65;;
64875;SDS011;51369;49.862;9.908;2023-12-07T12:47:35;73.28;;;23.38;;
64875;SDS011;51369;49.862;9.908;2023-12-07T12:50:01;70.20;;;24.70;;
64875;SDS011;51369;49.862;9.908;2023-12-07T12:52:29;72.75;;;24.88;;
64875;SDS011;51369;49.862;9.908;2023-12-07T12:54:55;65.78;;;23.27;;
64875;SDS011;51369;49.862;9.908;2023-12-07T12:57:21;59.22;;;23.08;;
64875;SDS011;51369;49.862;9.908;2023-12-07T12:59:49;65.40;;;24.95;;
64875;SDS011;51369;49.862;9.908;2023-12-07T13:02:15;68.22;;;25.35;;
64875;SDS011;51369;49.862;9.908;2023-12-07T13:04:41;69.45;;;25.35;;
64875;SDS011;51369;49.862;9.908;2023-12-07T13:07:06;67.55;;;23.65;;
64875;SDS011;51369;49.862;9.908;2023-12-07T13:09:31;67.57;;;24.80;;
64875;SDS011;51369;49.862;9.908;2023-12-07T13:11:57;58.50;;;23.80;;
64875;SDS011;51369;49.862;9.908;2023-12-07T13:14:23;64.18;;;23.60;;
64875;SDS011;51369;49.862;9.908;2023-12-07T13:16:49;65.20;;;23.33;;
64875;SDS011;51369;49.862;9.908;2023-12-07T13:19:14;58.97;;;22.88;;
64875;SDS011;51369;49.862;9.908;2023-12-07T13:21:40;60.95;;;24.13;;
64875;SDS011;51369;49.862;9.908;2023-12-07T13:24:05;61.33;;;23.27;;
64875;SDS011;51369;49.862;9.908;2023-12-07T13:26:32;56.88;;;24.67;;
64875;SDS011;51369;49.862;9.908;2023-12-07T13:28:58;57.47;;;23.17;;
64875;SDS011;51369;49.862;9.908;2023-12-07T13:31:23;56.53;;;23.23;;
64875;SDS011;51369;49.862;9.908;2023-12-07T13:33:49;55.85;;;21.40;;
64875;SDS011;51369;49.862;9.908;2023-12-07T13:36:16;49.47;;;21.48;;
64875;SDS011;51369;49.862;9.908;2023-12-07T13:38:43;52.42;;;21.65;;
64875;SDS011;51369;49.862;9.908;2023-12-07T13:41:09;47.63;;;21.20;;
64875;SDS011;51369;49.862;9.908;2023-12-07T13:43:34;54.08;;;22.95;;
64875;SDS011;51369;49.862;9.908;2023-12-07T13:45:59;52.00;;;23.30;;
64875;SDS011;51369;49.862;9.908;2023-12-07T13:48:25;55.35;;;23.80;;
64875;SDS011;51369;49.862;9.908;2023-12-07T13:50:52;52.20;;;23.42;;
64875;SDS011;51369;49.862;9.908;2023-12-07T13:53:17;45.78;;;20.25;;
64875;SDS011;51369;49.862;9.908;2023-12-07T13:55:44;57.72;;;23.02;;
64875;SDS011;51369;49.862;9.908;2023-12-07T13:58:10;59.17;;;22.73;;
64875;SDS011;51369;49.862;9.908;2023-12-07T14:00:36;45.10;;;21.23;;
64875;SDS011;51369;49.862;9.908;2023-12-07T14:03:03;50.80;;;23.02;;
64875;SDS011;51369;49.862;9.908;2023-12-07T14:05:29;50.83;;;22.33;;
64875;SDS011;51369;49.862;9.908;2023-12-07T14:07:55;57.33;;;23.15;;
64875;SDS011;51369;49.862;9.908;2023-12-07T14:10:21;51.10;;;22.40;;
64875;SDS011;51369;49.862;9.908;2023-12-07T14:12:47;49.90;;;22.67;;
64875;SDS011;51369;49.862;9.908;2023-12-07T14:15:12;58.60;;;26.05;;
64875;SDS011;51369;49.862;9.908;2023-12-07T14:17:38;61.22;;;25.02;;
64875;SDS011;51369;49.862;9.908;2023-12-07T14:20:06;55.15;;;23.45;;
64875;SDS011;51369;49.862;9.908;2023-12-07T14:22:33;63.63;;;26.05;;
64875;SDS011;51369;49.862;9.908;2023-12-07T14:25:00;55.97;;;25.15;;